createdAt,value
2019-05-30T00:00:27.718Z,15.28
2019-05-30T00:02:54.041Z,14.95
2019-05-30T00:05:20.881Z,15.23
2019-05-30T00:07:47.081Z,14.03
2019-05-30T00:10:13.662Z,17.07
2019-05-30T00:12:39.822Z,16.02
2019-05-30T00:15:06.564Z,14.85
2019-05-30T00:17:33.100Z,15.13
2019-05-30T00:19:59.285Z,14.58
2019-05-30T00:22:26.473Z,16.97
2019-05-30T00:24:52.679Z,17.55
2019-05-30T00:27:18.928Z,16.65
2019-05-30T00:29:45.097Z,17.05
2019-05-30T00:32:11.381Z,15.00
2019-05-30T00:34:37.556Z,16.48
2019-05-30T00:37:04.129Z,16.15
2019-05-30T00:39:30.600Z,16.12
2019-05-30T00:41:57.781Z,15.35
2019-05-30T00:44:24.170Z,14.63
2019-05-30T00:46:50.415Z,15.10
2019-05-30T00:49:16.655Z,17.05
2019-05-30T00:51:42.833Z,15.93
2019-05-30T00:54:09.312Z,13.85
2019-05-30T00:56:35.490Z,14.95
2019-05-30T00:59:02.742Z,14.90
2019-05-30T01:01:29.074Z,14.47
2019-05-30T01:03:56.734Z,15.00
2019-05-30T01:06:23.146Z,14.40
2019-05-30T01:08:49.568Z,14.07
2019-05-30T01:11:15.982Z,15.40
2019-05-30T01:13:42.148Z,16.52
2019-05-30T01:16:08.575Z,16.73
2019-05-30T01:18:34.759Z,15.63
2019-05-30T01:21:01.311Z,17.15
2019-05-30T01:23:27.556Z,13.58
2019-05-30T01:25:53.756Z,14.45
2019-05-30T01:28:19.916Z,12.98
2019-05-30T01:30:59.119Z,16.02
2019-05-30T01:33:14.262Z,13.72
2019-05-30T01:35:40.427Z,13.80
2019-05-30T01:38:07.948Z,13.65
2019-05-30T01:40:34.369Z,11.70
2019-05-30T01:43:01.984Z,16.32
2019-05-30T01:45:28.361Z,12.13
2019-05-30T01:47:54.525Z,11.78
2019-05-30T01:50:21.108Z,11.40
2019-05-30T01:52:47.268Z,14.68
2019-05-30T01:55:14.352Z,13.55
2019-05-30T01:57:40.542Z,12.20
2019-05-30T02:00:20.225Z,14.68
2019-05-30T02:02:39.281Z,13.33
2019-05-30T02:05:07.506Z,15.72
2019-05-30T02:07:33.734Z,12.70
2019-05-30T02:10:01.090Z,13.43
2019-05-30T02:12:27.457Z,13.60
2019-05-30T02:14:53.639Z,12.63
2019-05-30T02:17:19.838Z,14.83
2019-05-30T02:19:46.001Z,13.45
2019-05-30T02:22:12.440Z,14.20
2019-05-30T02:24:38.614Z,14.25
2019-05-30T02:27:04.817Z,14.30
2019-05-30T02:29:52.016Z,11.88
2019-05-30T02:32:18.176Z,11.63
2019-05-30T02:34:44.417Z,12.43
2019-05-30T02:37:12.680Z,13.20
2019-05-30T02:39:39.708Z,14.43
2019-05-30T02:42:07.299Z,12.80
2019-05-30T02:44:33.837Z,16.25
2019-05-30T02:47:01.445Z,14.83
2019-05-30T02:49:28.117Z,15.35
2019-05-30T02:51:54.274Z,15.65
2019-05-30T02:54:20.561Z,16.32
2019-05-30T02:56:46.964Z,14.53
2019-05-30T02:59:13.900Z,15.03
2019-05-30T03:01:59.287Z,16.30
2019-05-30T03:04:10.199Z,14.60
2019-05-30T03:06:36.482Z,14.33
2019-05-30T03:09:06.228Z,20.25
2019-05-30T03:11:33.900Z,12.58
2019-05-30T03:14:02.127Z,14.47
2019-05-30T03:16:28.661Z,13.05
2019-05-30T03:18:55.028Z,15.00
2019-05-30T03:21:21.227Z,11.50
2019-05-30T03:23:47.415Z,12.50
2019-05-30T03:26:15.697Z,14.70
2019-05-30T03:28:41.673Z,12.05
2019-05-30T03:31:20.360Z,13.98
2019-05-30T03:33:41.408Z,13.95
2019-05-30T03:36:09.937Z,11.70
2019-05-30T03:38:32.730Z,16.32
2019-05-30T03:40:58.936Z,18.65
2019-05-30T03:43:25.409Z,20.00
2019-05-30T03:45:52.194Z,19.98
2019-05-30T03:48:21.482Z,20.72
2019-05-30T03:50:51.192Z,20.90
2019-05-30T03:53:17.769Z,22.77
2019-05-30T03:55:47.760Z,22.10
2019-05-30T03:58:32.476Z,24.67
2019-05-30T04:01:02.498Z,22.07
2019-05-30T04:03:59.975Z,21.17
2019-05-30T04:06:29.955Z,22.32
2019-05-30T04:08:59.952Z,22.70
2019-05-30T04:11:31.032Z,23.92
2019-05-30T04:14:01.123Z,20.65
2019-05-30T04:16:27.279Z,22.37
2019-05-30T04:18:53.450Z,21.60
2019-05-30T04:21:21.691Z,20.88
2019-05-30T04:23:48.028Z,17.65
2019-05-30T04:26:15.723Z,20.72
2019-05-30T04:28:42.297Z,22.07
2019-05-30T04:31:09.878Z,20.10
2019-05-30T04:33:36.369Z,21.07
2019-05-30T04:36:02.541Z,18.85
2019-05-30T04:38:28.771Z,20.10
2019-05-30T04:40:54.937Z,16.73
2019-05-30T04:43:22.380Z,16.17
2019-05-30T04:45:48.634Z,17.85
2019-05-30T04:48:16.189Z,15.63
2019-05-30T04:50:42.532Z,14.80
2019-05-30T04:53:10.176Z,14.68
2019-05-30T04:55:36.793Z,13.55
2019-05-30T04:58:02.996Z,14.45
2019-05-30T05:00:29.587Z,14.28
2019-05-30T05:02:55.752Z,14.18
2019-05-30T05:05:26.540Z,15.10
2019-05-30T05:07:50.574Z,13.93
2019-05-30T05:10:18.266Z,12.93
2019-05-30T05:12:44.729Z,12.13
2019-05-30T05:15:12.379Z,12.30
2019-05-30T05:17:38.993Z,16.97
2019-05-30T05:20:06.074Z,13.70
2019-05-30T05:22:32.561Z,12.43
2019-05-30T05:24:58.728Z,11.55
2019-05-30T05:27:24.941Z,11.83
2019-05-30T05:29:51.100Z,11.00
2019-05-30T05:32:18.223Z,9.88
2019-05-30T05:34:44.552Z,10.30
2019-05-30T05:37:10.723Z,10.65
2019-05-30T05:39:36.896Z,12.05
2019-05-30T05:42:03.123Z,11.00
2019-05-30T05:44:29.331Z,9.40
2019-05-30T05:46:55.504Z,8.78
2019-05-30T05:49:22.618Z,8.98
2019-05-30T05:51:48.961Z,8.03
2019-05-30T05:54:15.176Z,9.30
2019-05-30T05:56:41.477Z,8.93
2019-05-30T05:59:07.734Z,8.68
2019-05-30T06:01:34.050Z,8.38
2019-05-30T06:04:12.751Z,8.53
2019-05-30T06:06:31.515Z,9.93
2019-05-30T06:08:57.537Z,8.53
2019-05-30T06:11:24.638Z,9.68
2019-05-30T06:13:51.105Z,9.23
2019-05-30T06:16:17.815Z,7.95
2019-05-30T06:18:44.042Z,8.20
2019-05-30T06:21:10.241Z,8.58
2019-05-30T06:23:36.432Z,7.62
2019-05-30T06:26:02.909Z,7.58
2019-05-30T06:28:29.117Z,9.50
2019-05-30T06:30:58.769Z,7.85
2019-05-30T06:33:23.810Z,8.43
2019-05-30T06:35:51.189Z,8.43
2019-05-30T06:38:17.354Z,7.58
2019-05-30T06:40:43.574Z,7.58
2019-05-30T06:43:09.741Z,7.78
2019-05-30T06:45:35.909Z,8.53
2019-05-30T06:48:02.117Z,6.97
2019-05-30T06:50:29.169Z,8.00
2019-05-30T06:52:55.514Z,7.33
2019-05-30T06:55:23.007Z,7.45
2019-05-30T06:57:49.453Z,9.18
2019-05-30T07:00:16.021Z,7.10
2019-05-30T07:02:42.541Z,7.67
2019-05-30T07:05:09.887Z,6.60
2019-05-30T07:07:36.476Z,8.20
2019-05-30T07:10:06.435Z,8.00
2019-05-30T07:12:33.237Z,8.23
2019-05-30T07:14:59.600Z,9.53
2019-05-30T07:17:25.793Z,8.48
2019-05-30T07:19:51.975Z,7.58
2019-05-30T07:22:18.167Z,6.10
2019-05-30T07:24:44.330Z,8.13
2019-05-30T07:27:10.558Z,7.25
2019-05-30T07:29:36.730Z,9.18
2019-05-30T07:32:03.301Z,7.42
2019-05-30T07:34:30.192Z,7.28
2019-05-30T07:36:56.592Z,6.83
2019-05-30T07:39:22.773Z,6.30
2019-05-30T07:42:05.234Z,7.22
2019-05-30T07:44:17.065Z,6.10
2019-05-30T07:46:43.230Z,4.87
2019-05-30T07:49:09.462Z,5.22
2019-05-30T07:51:35.668Z,5.35
2019-05-30T07:54:02.044Z,7.67
2019-05-30T07:56:28.927Z,6.12
2019-05-30T07:58:55.365Z,5.80
2019-05-30T08:01:21.738Z,5.87
2019-05-30T08:03:47.905Z,5.15
2019-05-30T08:06:14.211Z,5.05
2019-05-30T08:08:40.403Z,5.60
2019-05-30T08:11:09.791Z,5.80
2019-05-30T08:13:35.233Z,5.78
2019-05-30T08:16:01.700Z,5.00
2019-05-30T08:18:27.992Z,4.00
2019-05-30T08:20:54.179Z,5.87
2019-05-30T08:23:20.357Z,4.85
2019-05-30T08:25:46.551Z,6.05
2019-05-30T08:28:12.909Z,5.45
2019-05-30T08:30:39.479Z,3.70
2019-05-30T08:33:05.673Z,5.97
2019-05-30T08:35:46.720Z,4.12
2019-05-30T08:38:00.057Z,4.87
2019-05-30T08:40:26.225Z,4.55
2019-05-30T08:42:52.452Z,5.60
2019-05-30T08:45:20.887Z,5.30
2019-05-30T08:47:47.365Z,5.05
2019-05-30T08:50:13.897Z,5.10
2019-05-30T08:52:40.947Z,5.08
2019-05-30T08:55:09.154Z,5.60
2019-05-30T08:57:36.530Z,6.08
2019-05-30T09:00:05.620Z,5.78
2019-05-30T09:02:57.985Z,4.83
2019-05-30T09:05:28.087Z,5.92
2019-05-30T09:07:54.265Z,4.60
2019-05-30T09:10:21.246Z,6.05
2019-05-30T09:12:49.604Z,3.77
2019-05-30T09:15:16.009Z,5.15
2019-05-30T09:17:42.658Z,5.03
2019-05-30T09:20:10.020Z,3.52
2019-05-30T09:22:38.462Z,4.95
2019-05-30T09:25:07.840Z,4.50
2019-05-30T09:27:34.060Z,6.37
2019-05-30T09:30:00.507Z,5.10
2019-05-30T09:32:26.724Z,4.10
2019-05-30T09:34:52.940Z,3.65
2019-05-30T09:37:19.093Z,4.17
2019-05-30T09:39:45.595Z,4.45
2019-05-30T09:42:11.858Z,3.37
2019-05-30T09:44:38.074Z,2.83
2019-05-30T09:47:04.320Z,3.05
2019-05-30T09:49:30.648Z,4.87
2019-05-30T09:51:56.842Z,4.08
2019-05-30T09:54:23.045Z,4.08
2019-05-30T09:56:50.659Z,4.55
2019-05-30T09:59:17.416Z,3.67
2019-05-30T10:01:44.329Z,2.77
2019-05-30T10:04:10.588Z,3.60
2019-05-30T10:06:36.978Z,4.10
2019-05-30T10:09:06.594Z,3.85
2019-05-30T10:11:32.874Z,3.80
2019-05-30T10:13:59.071Z,3.62
2019-05-30T10:16:25.313Z,4.92
2019-05-30T10:18:52.707Z,4.22
2019-05-30T10:21:19.284Z,3.12
2019-05-30T10:23:46.184Z,5.28
2019-05-30T10:26:13.949Z,5.78
2019-05-30T10:31:01.309Z,3.90
2019-05-30T10:33:27.495Z,6.95
2019-05-30T10:35:53.682Z,3.42
2019-05-30T10:38:20.249Z,4.50
2019-05-30T10:40:47.430Z,5.45
2019-05-30T10:43:14.689Z,5.87
2019-05-30T10:45:40.885Z,3.75
2019-05-30T10:48:07.553Z,3.75
2019-05-30T10:50:33.788Z,2.98
2019-05-30T10:52:59.996Z,3.55
2019-05-30T10:55:26.685Z,2.92
2019-05-30T10:57:56.270Z,3.52
2019-05-30T11:00:24.800Z,3.92
2019-05-30T11:02:51.285Z,4.10
2019-05-30T11:05:19.045Z,3.58
2019-05-30T11:08:06.930Z,3.02
2019-05-30T11:10:38.107Z,3.08
2019-05-30T11:13:06.893Z,3.27
2019-05-30T11:15:33.387Z,3.85
2019-05-30T11:18:00.674Z,2.92
2019-05-30T11:20:26.984Z,2.87
2019-05-30T11:22:54.503Z,4.25
2019-05-30T11:25:21.130Z,3.00
2019-05-30T11:27:48.523Z,3.05
2019-05-30T11:30:15.622Z,3.80
2019-05-30T11:32:41.917Z,3.83
2019-05-30T11:35:11.501Z,2.40
2019-05-30T11:37:38.126Z,2.65
2019-05-30T11:40:06.134Z,4.12
2019-05-30T11:42:32.434Z,3.12
2019-05-30T11:44:59.868Z,3.05
2019-05-30T11:47:26.298Z,3.20
2019-05-30T11:49:53.593Z,3.37
2019-05-30T11:52:19.995Z,2.00
2019-05-30T11:54:46.185Z,2.62
2019-05-30T11:57:12.374Z,2.35
2019-05-30T11:59:38.823Z,4.75
2019-05-30T12:02:05.030Z,2.95
2019-05-30T12:04:31.235Z,2.25
2019-05-30T12:06:57.409Z,2.80
2019-05-30T12:09:23.839Z,1.42
2019-05-30T12:11:50.990Z,2.30
2019-05-30T12:14:21.137Z,2.65
2019-05-30T12:16:45.719Z,2.83
2019-05-30T12:19:12.073Z,4.97
2019-05-30T12:21:38.423Z,2.00
2019-05-30T12:24:05.103Z,3.17
2019-05-30T12:26:33.847Z,1.80
2019-05-30T12:29:00.159Z,2.95
2019-05-30T12:31:26.525Z,2.02
2019-05-30T12:33:54.081Z,2.90
2019-05-30T12:36:21.790Z,5.78
2019-05-30T12:38:47.964Z,1.72
2019-05-30T12:41:14.271Z,1.82
2019-05-30T12:43:40.571Z,1.95
2019-05-30T12:46:06.773Z,2.37
2019-05-30T12:48:32.937Z,2.22
2019-05-30T12:50:59.402Z,4.90
2019-05-30T12:53:25.623Z,2.15
2019-05-30T12:55:51.803Z,1.60
2019-05-30T12:58:18.065Z,2.20
2019-05-30T13:00:44.381Z,3.65
2019-05-30T13:03:10.565Z,2.20
2019-05-30T13:05:36.832Z,2.72
2019-05-30T13:08:17.690Z,1.62
2019-05-30T13:10:31.200Z,3.80
2019-05-30T13:12:57.599Z,2.70
2019-05-30T13:15:23.956Z,2.00
2019-05-30T13:17:50.344Z,2.08
2019-05-30T13:20:17.121Z,1.85
2019-05-30T13:22:43.355Z,3.92
2019-05-30T13:25:12.921Z,3.15
2019-05-30T13:27:39.093Z,1.30
2019-05-30T13:30:06.250Z,1.70
2019-05-30T13:32:32.466Z,2.98
2019-05-30T13:34:59.194Z,2.55
2019-05-30T13:37:26.761Z,4.22
2019-05-30T13:39:52.929Z,2.37
2019-05-30T13:42:19.157Z,2.98
2019-05-30T13:44:46.437Z,2.12
2019-05-30T13:47:12.662Z,2.17
2019-05-30T13:49:39.042Z,3.17
2019-05-30T13:52:05.340Z,5.70
2019-05-30T13:54:31.534Z,1.62
2019-05-30T13:56:57.702Z,2.50
2019-05-30T13:59:23.883Z,3.12
2019-05-30T14:01:50.047Z,1.52
2019-05-30T14:04:16.228Z,2.60
2019-05-30T14:06:42.419Z,1.57
2019-05-30T14:09:08.677Z,1.45
2019-05-30T14:11:35.161Z,2.60
2019-05-30T14:14:02.766Z,2.30
2019-05-30T14:16:29.020Z,1.82
2019-05-30T14:18:55.209Z,1.82
2019-05-30T14:21:21.408Z,1.32
2019-05-30T14:23:47.593Z,3.90
2019-05-30T14:26:14.093Z,2.55
2019-05-30T14:28:40.432Z,1.60
2019-05-30T14:31:06.828Z,1.25
2019-05-30T14:33:33.185Z,2.72
2019-05-30T14:35:59.359Z,2.47
2019-05-30T14:38:25.561Z,2.65
2019-05-30T14:40:51.733Z,1.90
2019-05-30T14:43:17.989Z,3.40
2019-05-30T14:45:44.169Z,2.05
2019-05-30T14:48:10.587Z,2.25
2019-05-30T14:50:36.909Z,2.25
2019-05-30T14:53:04.495Z,2.15
2019-05-30T14:55:30.893Z,2.08
2019-05-30T14:57:58.213Z,1.45
2019-05-30T15:00:24.969Z,2.55
2019-05-30T15:02:51.211Z,1.65
2019-05-30T15:05:17.962Z,1.87
2019-05-30T15:07:44.186Z,3.40
2019-05-30T15:10:12.612Z,3.40
2019-05-30T15:12:39.041Z,2.22
2019-05-30T15:15:07.925Z,3.62
2019-05-30T15:17:34.820Z,2.98
2019-05-30T15:20:03.251Z,2.55
2019-05-30T15:22:29.453Z,1.75
2019-05-30T15:24:55.637Z,2.10
2019-05-30T15:27:21.813Z,2.35
2019-05-30T15:29:48.008Z,2.17
2019-05-30T15:32:14.488Z,2.10
2019-05-30T15:34:40.860Z,2.17
2019-05-30T15:37:07.029Z,3.62
2019-05-30T15:39:33.269Z,2.42
2019-05-30T15:41:59.505Z,2.58
2019-05-30T15:44:25.668Z,3.15
2019-05-30T15:46:51.845Z,1.80
2019-05-30T15:49:18.450Z,1.40
2019-05-30T15:51:44.690Z,1.50
2019-05-30T15:54:10.889Z,2.15
2019-05-30T15:56:37.077Z,2.12
2019-05-30T15:59:03.244Z,1.77
2019-05-30T16:01:29.405Z,2.52
2019-05-30T16:03:55.582Z,2.27
2019-05-30T16:06:22.749Z,2.47
2019-05-30T16:08:48.958Z,3.67
2019-05-30T16:11:15.227Z,1.82
2019-05-30T16:13:41.417Z,2.62
2019-05-30T16:16:07.574Z,3.40
2019-05-30T16:18:33.962Z,1.62
2019-05-30T16:21:00.125Z,2.45
2019-05-30T16:23:27.754Z,3.45
2019-05-30T16:25:55.892Z,1.55
2019-05-30T16:28:22.094Z,2.02
2019-05-30T16:30:48.258Z,1.87
2019-05-30T16:33:14.493Z,2.15
2019-05-30T16:35:40.676Z,2.62
2019-05-30T16:38:06.857Z,2.62
2019-05-30T16:40:33.038Z,2.85
2019-05-30T16:42:59.213Z,6.05
2019-05-30T16:45:25.835Z,3.17
2019-05-30T16:47:52.989Z,3.12
2019-05-30T16:50:22.769Z,3.70
2019-05-30T16:52:49.298Z,2.85
2019-05-30T16:55:15.789Z,1.62
2019-05-30T16:57:41.972Z,2.33
2019-05-30T17:00:12.113Z,2.95
2019-05-30T17:02:38.432Z,2.55
2019-05-30T17:05:06.699Z,4.28
2019-05-30T17:07:33.075Z,2.45
2019-05-30T17:09:59.452Z,1.70
2019-05-30T17:12:25.807Z,2.58
2019-05-30T17:14:52.203Z,3.37
2019-05-30T17:17:19.965Z,3.65
2019-05-30T17:19:47.431Z,3.98
2019-05-30T17:22:13.634Z,2.08
2019-05-30T17:24:39.881Z,2.85
2019-05-30T17:27:06.131Z,2.00
2019-05-30T17:29:32.300Z,1.92
2019-05-30T17:31:58.504Z,2.10
2019-05-30T17:34:26.093Z,3.65
2019-05-30T17:36:52.400Z,5.28
2019-05-30T17:39:18.905Z,2.55
2019-05-30T17:41:45.253Z,3.90
2019-05-30T17:44:11.447Z,2.90
2019-05-30T17:46:37.653Z,1.95
2019-05-30T17:49:04.126Z,2.22
2019-05-30T17:51:30.304Z,1.90
2019-05-30T17:53:56.483Z,3.25
2019-05-30T17:56:23.886Z,2.58
2019-05-30T17:58:50.324Z,2.95
2019-05-30T18:01:16.505Z,2.58
2019-05-30T18:03:42.733Z,2.92
2019-05-30T18:06:08.929Z,2.33
2019-05-30T18:08:35.113Z,3.12
2019-05-30T18:11:01.281Z,2.95
2019-05-30T18:13:27.464Z,5.35
2019-05-30T18:15:53.621Z,3.47
2019-05-30T18:18:21.088Z,6.60
2019-05-30T18:20:48.643Z,3.70
2019-05-30T18:23:15.115Z,2.77
2019-05-30T18:25:41.338Z,3.27
2019-05-30T18:28:07.639Z,3.58
2019-05-30T18:30:41.992Z,3.77
2019-05-30T18:33:08.886Z,1.85
2019-05-30T18:35:35.084Z,2.05
2019-05-30T18:38:02.063Z,3.15
2019-05-30T18:40:31.263Z,2.10
2019-05-30T18:42:58.451Z,2.95
2019-05-30T18:45:38.922Z,5.83
2019-05-30T18:48:05.985Z,2.20
2019-05-30T18:50:33.269Z,4.65
2019-05-30T18:52:59.764Z,4.20
2019-05-30T18:55:26.559Z,2.08
2019-05-30T18:57:52.965Z,2.55
2019-05-30T19:00:19.223Z,4.37
2019-05-30T19:02:45.397Z,2.70
2019-05-30T19:05:11.853Z,3.05
2019-05-30T19:07:38.032Z,5.22
2019-05-30T19:10:04.421Z,4.92
2019-05-30T19:12:30.684Z,9.93
2019-05-30T19:14:56.865Z,9.65
2019-05-30T19:17:23.057Z,10.15
2019-05-30T19:19:51.345Z,13.00
2019-05-30T19:22:17.491Z,19.82
2019-05-30T19:24:43.729Z,12.30
2019-05-30T19:27:09.939Z,11.30
2019-05-30T19:29:38.110Z,18.73
2019-05-30T19:32:04.409Z,5.08
2019-05-30T19:34:30.770Z,8.83
2019-05-30T19:36:57.072Z,14.85
2019-05-30T19:39:23.245Z,17.82
2019-05-30T19:41:56.643Z,9.85
2019-05-30T19:44:17.543Z,10.60
2019-05-30T19:46:43.737Z,9.88
2019-05-30T19:49:09.883Z,8.23
2019-05-30T19:51:37.175Z,8.03
2019-05-30T19:54:03.438Z,12.00
2019-05-30T19:56:29.786Z,8.63
2019-05-30T19:58:55.940Z,17.25
2019-05-30T20:01:22.141Z,9.73
2019-05-30T20:03:48.299Z,6.20
2019-05-30T20:06:14.486Z,6.03
2019-05-30T20:08:52.839Z,7.03
2019-05-30T20:11:08.753Z,7.28
2019-05-30T20:13:35.078Z,4.37
2019-05-30T20:16:01.302Z,4.35
2019-05-30T20:18:27.482Z,9.38
2019-05-30T20:20:57.656Z,5.65
2019-05-30T20:23:22.845Z,5.80
2019-05-30T20:25:49.047Z,6.33
2019-05-30T20:28:15.284Z,4.87
2019-05-30T20:30:41.668Z,8.15
2019-05-30T20:33:07.856Z,7.30
2019-05-30T20:35:36.070Z,5.92
2019-05-30T20:38:02.132Z,6.20
2019-05-30T20:40:28.305Z,7.50
2019-05-30T20:42:54.483Z,5.10
2019-05-30T20:45:21.154Z,5.12
2019-05-30T20:47:47.574Z,6.37
2019-05-30T20:50:15.702Z,7.28
2019-05-30T20:52:45.416Z,5.55
2019-05-30T20:55:12.152Z,5.58
2019-05-30T20:57:38.488Z,6.12
2019-05-30T21:00:09.101Z,4.55
2019-05-30T21:02:36.561Z,5.03
2019-05-30T21:05:05.242Z,4.42
2019-05-30T21:07:33.194Z,5.95
2019-05-30T21:10:00.441Z,6.50
2019-05-30T21:12:37.693Z,4.97
2019-05-30T21:15:00.181Z,6.28
2019-05-30T21:17:26.618Z,3.72
2019-05-30T21:19:52.944Z,5.15
2019-05-30T21:22:19.614Z,4.80
2019-05-30T21:24:46.997Z,5.12
2019-05-30T21:27:13.413Z,5.95
2019-05-30T21:29:41.016Z,4.75
2019-05-30T21:32:07.326Z,4.45
2019-05-30T21:34:33.486Z,6.37
2019-05-30T21:36:59.644Z,5.50
2019-05-30T21:39:25.840Z,4.87
2019-05-30T21:41:52.069Z,4.80
2019-05-30T21:44:18.247Z,4.85
2019-05-30T21:46:44.823Z,5.87
2019-05-30T21:49:11.148Z,4.85
2019-05-30T21:51:37.317Z,5.15
2019-05-30T21:54:03.501Z,8.28
2019-05-30T21:56:29.665Z,5.03
2019-05-30T21:58:55.890Z,3.58
2019-05-30T22:01:26.860Z,6.53
2019-05-30T22:03:53.060Z,4.22
2019-05-30T22:06:19.654Z,4.35
2019-05-30T22:08:47.114Z,6.00
2019-05-30T22:11:13.449Z,5.47
2019-05-30T22:13:39.864Z,7.20
2019-05-30T22:16:06.257Z,4.85
2019-05-30T22:18:32.448Z,7.00
2019-05-30T22:20:58.790Z,7.28
2019-05-30T22:23:24.980Z,5.45
2019-05-30T22:25:51.192Z,6.17
2019-05-30T22:28:17.369Z,8.88
2019-05-30T22:30:44.528Z,5.08
2019-05-30T22:33:10.712Z,5.83
2019-05-30T22:35:36.865Z,4.90
2019-05-30T22:38:03.050Z,4.92
2019-05-30T22:40:29.225Z,4.58
2019-05-30T22:42:56.448Z,6.15
2019-05-30T22:45:22.788Z,3.90
2019-05-30T22:47:48.995Z,5.87
2019-05-30T22:50:15.190Z,4.45
2019-05-30T22:52:41.384Z,4.28
2019-05-30T22:55:07.890Z,4.85
2019-05-30T22:57:34.048Z,5.15
2019-05-30T23:00:01.530Z,5.30
2019-05-30T23:02:27.699Z,3.72
2019-05-30T23:04:54.303Z,7.28
2019-05-30T23:07:20.648Z,5.00
2019-05-30T23:09:47.528Z,4.60
2019-05-30T23:12:13.784Z,3.95
2019-05-30T23:14:39.966Z,4.87
2019-05-30T23:17:06.140Z,4.05
2019-05-30T23:19:32.299Z,3.27
2019-05-30T23:21:58.486Z,3.27
2019-05-30T23:24:24.643Z,5.47
2019-05-30T23:26:51.722Z,5.45
2019-05-30T23:29:18.140Z,4.40
2019-05-30T23:31:44.303Z,4.08
2019-05-30T23:34:10.513Z,4.53
2019-05-30T23:36:36.667Z,5.15
2019-05-30T23:39:05.105Z,6.10
2019-05-30T23:41:31.991Z,6.58
2019-05-30T23:44:10.649Z,5.33
2019-05-30T23:46:26.281Z,4.60
2019-05-30T23:48:53.527Z,5.00
2019-05-30T23:51:19.942Z,4.85
2019-05-30T23:53:46.326Z,3.05
2019-05-30T23:56:12.669Z,4.85
2019-05-30T23:58:38.848Z,4.87
